Terminal Aerodrome Forecast
Issued by NWS

Home | Current Version | Previous Version | Text Only | Print | Product List | Glossary On
Versions: 1 2 3 4 5 6 7 8 9 10 11 12 13 14 15 16 17 18 19
438
FTUS42 KMLB 211721
TAFISM
TAF
KISM 211721Z 2118/2218 13010KT P6SM VCSH FEW015 SCT035 OVC060
      TEMPO 2118/2120 2SM +SHRA BKN020
     FM212000 11008KT 6SM -RA BR SCT010 BKN060 OVC090
     FM220000 10005KT P6SM SCT020 BKN050 OVC080
     FM221400 12006KT P6SM VCSH SCT025 BKN050 BKN090=

USA.gov is the U.S. government's official web portal to all federal, state and local government web resources and services.